Time;durP1;ratioP1;P1;durP2;ratioP2;P2;SDS_P1;SDS_P2;PMS_P1;PMS_P2;Temp;Humidity;BMP_temperature;BMP_pressure;BME280_temperature;BME280_humidity;BME280_pressure;Samples;Min_cycle;Max_cycle;Signal;HPM_P1;HPM_P2
2023/03/31 00:01:12;;;;;;;0.30;0.30;;;;;;;;;;5014520;28;20243;-68
2023/03/31 00:03:42;;;;;;;0.10;0.10;;;;;;;;;;5025175;28;20243;-71
2023/03/31 00:06:11;;;;;;;0.10;0.10;;;;;;;;;;5014206;28;20249;-68
2023/03/31 00:08:39;;;;;;;0.10;0.10;;;;;;;;;;5025177;28;20425;-68
2023/03/31 00:11:07;;;;;;;0.10;0.10;;;;;;;;;;5014656;28;20330;-68
2023/03/31 00:13:33;;;;;;;0.10;0.10;;;;;;;;;;5025161;28;20215;-68
2023/03/31 00:16:01;;;;;;;0.10;0.10;;;;;;;;;;5014886;28;20257;-67
2023/03/31 00:18:28;;;;;;;0.20;0.20;;;;;;;;;;5024567;28;20206;-68
2023/03/31 00:20:56;;;;;;;0.10;0.10;;;;;;;;;;5014668;28;20563;-68
2023/03/31 00:23:26;;;;;;;0.10;0.10;;;;;;;;;;5024850;28;20602;-67
2023/03/31 00:25:53;;;;;;;1.27;1.27;;;;;;;;;;5014137;28;20248;-68
2023/03/31 00:28:19;;;;;;;0.10;0.10;;;;;;;;;;5024110;28;20215;-68
2023/03/31 00:30:46;;;;;;;0.10;0.10;;;;;;;;;;5014511;28;20251;-68
2023/03/31 00:33:12;;;;;;;0.10;0.10;;;;;;;;;;5024374;28;20218;-68
2023/03/31 00:35:39;;;;;;;0.10;0.10;;;;;;;;;;5014437;28;20262;-68
2023/03/31 00:38:07;;;;;;;0.10;0.10;;;;;;;;;;5023936;28;20386;-68
2023/03/31 00:40:35;;;;;;;0.10;0.10;;;;;;;;;;5014243;28;20254;-68
2023/03/31 00:43:02;;;;;;;0.10;0.10;;;;;;;;;;5023725;28;20263;-67
2023/03/31 00:45:29;;;;;;;0.10;0.10;;;;;;;;;;5014661;28;20249;-68
2023/03/31 00:48:02;;;;;;;0.10;0.10;;;;;;;;;;5023488;28;20266;-68
2023/03/31 00:50:30;;;;;;;0.10;0.10;;;;;;;;;;5014329;28;20235;-68
2023/03/31 00:52:59;;;;;;;0.87;0.87;;;;;;;;;;5023582;28;20381;-69
2023/03/31 00:55:28;;;;;;;0.10;0.10;;;;;;;;;;5014090;28;20308;-68
2023/03/31 00:57:56;;;;;;;0.10;0.10;;;;;;;;;;5023478;28;20250;-68
2023/03/31 01:00:23;;;;;;;0.10;0.10;;;;;;;;;;5014171;28;20221;-68
2023/03/31 01:02:51;;;;;;;0.10;0.10;;;;;;;;;;5022798;28;20196;-67
2023/03/31 01:05:18;;;;;;;0.10;0.10;;;;;;;;;;5014588;28;20225;-68
2023/03/31 01:07:48;;;;;;;0.10;0.10;;;;;;;;;;5023892;28;20195;-68
2023/03/31 01:10:14;;;;;;;0.10;0.10;;;;;;;;;;5013994;28;20241;-68
2023/03/31 01:12:42;;;;;;;0.10;0.10;;;;;;;;;;5023062;28;20200;-68
2023/03/31 01:15:10;;;;;;;0.10;0.10;;;;;;;;;;5015200;28;20267;-67
2023/03/31 01:17:37;;;;;;;0.10;0.10;;;;;;;;;;5023097;28;20287;-68
2023/03/31 01:20:12;;;;;;;0.10;0.10;;;;;;;;;;5024980;28;20216;-67
2023/03/31 01:22:51;;;;;;;0.10;0.10;;;;;;;;;;4997276;28;20218;-67
2023/03/31 01:25:31;;;;;;;0.10;0.10;;;;;;;;;;5014699;28;20393;-67
2023/03/31 01:28:08;;;;;;;0.10;0.10;;;;;;;;;;5023723;28;20494;-67
2023/03/31 01:30:52;;;;;;;0.10;0.10;;;;;;;;;;5014560;28;20500;-67
2023/03/31 01:33:31;;;;;;;0.10;0.10;;;;;;;;;;5013940;28;20443;-67
2023/03/31 01:36:15;;;;;;;0.10;0.10;;;;;;;;;;5014002;28;20275;-67
2023/03/31 01:39:06;;;;;;;0.10;0.10;;;;;;;;;;5023796;28;20212;-67
2023/03/31 01:41:39;;;;;;;0.10;0.10;;;;;;;;;;5012888;28;20252;-67
2023/03/31 01:44:08;;;;;;;0.10;0.10;;;;;;;;;;5023633;28;20221;-67
2023/03/31 01:46:36;;;;;;;0.10;0.10;;;;;;;;;;5012672;28;20240;-67
2023/03/31 01:49:07;;;;;;;0.10;0.10;;;;;;;;;;5023210;28;20405;-67
2023/03/31 01:51:35;;;;;;;0.10;0.10;;;;;;;;;;5012908;28;20247;-67
2023/03/31 01:54:05;;;;;;;0.10;0.10;;;;;;;;;;5023713;28;20268;-67
2023/03/31 01:56:33;;;;;;;0.10;0.10;;;;;;;;;;5013386;28;20263;-67
2023/03/31 01:59:02;;;;;;;0.10;0.10;;;;;;;;;;5023336;28;20384;-67
2023/03/31 02:01:31;;;;;;;0.10;0.10;;;;;;;;;;5012597;28;20257;-66
2023/03/31 02:03:58;;;;;;;0.10;0.10;;;;;;;;;;5022827;28;20212;-68
2023/03/31 02:06:27;;;;;;;0.10;0.10;;;;;;;;;;5012785;28;20484;-68
2023/03/31 02:08:56;;;;;;;0.10;0.10;;;;;;;;;;5023260;28;20223;-67
2023/03/31 02:11:22;;;;;;;0.10;0.10;;;;;;;;;;5012567;28;20265;-67
2023/03/31 02:13:51;;;;;;;0.10;0.10;;;;;;;;;;5024881;28;20247;-67
2023/03/31 02:16:23;;;;;;;0.10;0.10;;;;;;;;;;5016573;28;20269;-67
2023/03/31 02:18:51;;;;;;;0.10;0.10;;;;;;;;;;5027292;28;20212;-69
2023/03/31 02:21:19;;;;;;;0.10;0.10;;;;;;;;;;5016770;28;20264;-69
2023/03/31 02:23:48;;;;;;;0.10;0.10;;;;;;;;;;5026825;28;20491;-73
2023/03/31 02:26:15;;;;;;;0.10;0.10;;;;;;;;;;5016214;28;20241;-70
2023/03/31 02:28:42;;;;;;;0.10;0.10;;;;;;;;;;5026755;28;20272;-68
2023/03/31 02:31:13;;;;;;;0.10;0.10;;;;;;;;;;5016384;28;20244;-67
2023/03/31 02:33:41;;;;;;;0.10;0.10;;;;;;;;;;5027080;28;20216;-67
2023/03/31 02:36:08;;;;;;;0.10;0.10;;;;;;;;;;5016521;28;20314;-68
2023/03/31 02:38:37;;;;;;;0.10;0.10;;;;;;;;;;5027045;28;20273;-67
2023/03/31 02:41:03;;;;;;;0.20;0.20;;;;;;;;;;5016340;28;20260;-68
2023/03/31 02:43:30;;;;;;;0.10;0.10;;;;;;;;;;5026454;28;20388;-67
2023/03/31 02:45:56;;;;;;;0.10;0.10;;;;;;;;;;5016383;28;20260;-67
2023/03/31 02:48:24;;;;;;;0.10;0.10;;;;;;;;;;5026314;28;20284;-68
2023/03/31 02:51:10;;;;;;;0.10;0.10;;;;;;;;;;5016880;28;20251;-69
2023/03/31 02:53:43;;;;;;;0.10;0.10;;;;;;;;;;5026348;28;20209;-69
2023/03/31 02:56:22;;;;;;;0.10;0.10;;;;;;;;;;5015757;28;20271;-69
2023/03/31 02:59:03;;;;;;;0.17;0.17;;;;;;;;;;5026075;28;20211;-68
2023/03/31 03:01:50;;;;;;;0.10;0.10;;;;;;;;;;5013086;28;20247;-68
2023/03/31 03:04:28;;;;;;;0.10;0.10;;;;;;;;;;5026609;28;20460;-69
2023/03/31 03:07:02;;;;;;;0.10;0.10;;;;;;;;;;5015537;28;20300;-68
2023/03/31 03:09:34;;;;;;;0.13;0.13;;;;;;;;;;5026712;28;20241;-69
2023/03/31 03:12:06;;;;;;;0.10;0.10;;;;;;;;;;5015225;28;20500;-69
2023/03/31 03:14:35;;;;;;;0.10;0.10;;;;;;;;;;5026324;28;20240;-69
2023/03/31 03:17:04;;;;;;;0.10;0.10;;;;;;;;;;5014936;28;20333;-69
2023/03/31 03:19:30;;;;;;;0.10;0.10;;;;;;;;;;5026198;28;20580;-69
2023/03/31 03:21:58;;;;;;;0.10;0.10;;;;;;;;;;5014898;28;20312;-67
2023/03/31 03:24:28;;;;;;;0.10;0.10;;;;;;;;;;5025581;28;20287;-67
2023/03/31 03:26:54;;;;;;;0.10;0.10;;;;;;;;;;5014687;28;20596;-67
2023/03/31 03:29:21;;;;;;;0.10;0.10;;;;;;;;;;5026083;28;20205;-68
2023/03/31 03:31:47;;;;;;;0.10;0.10;;;;;;;;;;5014801;28;20260;-68
2023/03/31 03:34:15;;;;;;;0.10;0.10;;;;;;;;;;5025435;28;20273;-68
2023/03/31 03:36:41;;;;;;;0.10;0.10;;;;;;;;;;5014712;28;20276;-68
2023/03/31 03:39:09;;;;;;;0.10;0.10;;;;;;;;;;5025388;28;20272;-68
2023/03/31 03:41:35;;;;;;;0.20;0.20;;;;;;;;;;5014519;28;20316;-67
2023/03/31 03:44:02;;;;;;;0.10;0.10;;;;;;;;;;5024930;28;20212;-69
2023/03/31 03:46:28;;;;;;;0.10;0.10;;;;;;;;;;5014819;28;20240;-69
2023/03/31 03:48:54;;;;;;;0.10;0.10;;;;;;;;;;5025570;28;20498;-69
2023/03/31 03:51:21;;;;;;;0.10;0.10;;;;;;;;;;5015050;28;20456;-68
2023/03/31 03:53:47;;;;;;;0.10;0.10;;;;;;;;;;5025590;28;20205;-69
2023/03/31 03:56:15;;;;;;;0.10;0.10;;;;;;;;;;5014664;28;20245;-68
2023/03/31 03:58:41;;;;;;;0.10;0.10;;;;;;;;;;5025267;28;20218;-69
2023/03/31 04:01:07;;;;;;;0.10;0.10;;;;;;;;;;5014554;28;20311;-69
2023/03/31 04:03:34;;;;;;;0.10;0.10;;;;;;;;;;5024704;28;20274;-68
2023/03/31 04:06:00;;;;;;;0.10;0.10;;;;;;;;;;5015230;28;20567;-69
2023/03/31 04:08:27;;;;;;;0.10;0.10;;;;;;;;;;5025121;28;20465;-68
2023/03/31 04:10:53;;;;;;;0.10;0.10;;;;;;;;;;5015318;28;20560;-69
2023/03/31 04:13:21;;;;;;;0.10;0.10;;;;;;;;;;5025072;28;20296;-68
2023/03/31 04:15:47;;;;;;;0.20;0.20;;;;;;;;;;5014809;28;20241;-69
2023/03/31 04:18:17;;;;;;;0.10;0.10;;;;;;;;;;5024357;28;20276;-68
2023/03/31 04:20:44;;;;;;;0.10;0.10;;;;;;;;;;5014913;28;20279;-69
2023/03/31 04:23:13;;;;;;;0.63;0.63;;;;;;;;;;5024742;28;20266;-69
2023/03/31 04:25:45;;;;;;;0.10;0.10;;;;;;;;;;5014648;28;20271;-69
2023/03/31 04:28:13;;;;;;;0.10;0.10;;;;;;;;;;5024108;28;20215;-69
2023/03/31 04:30:41;;;;;;;16.43;2.07;;;;;;;;;;5014077;28;20252;-69
2023/03/31 04:33:08;;;;;;;0.10;0.10;;;;;;;;;;5023941;28;20247;-67
2023/03/31 04:35:47;;;;;;;0.10;0.10;;;;;;;;;;5013830;28;20260;-67
2023/03/31 04:38:17;;;;;;;0.10;0.10;;;;;;;;;;5023704;28;20227;-67
2023/03/31 04:40:43;;;;;;;0.10;0.10;;;;;;;;;;5014376;28;20284;-68
2023/03/31 04:43:10;;;;;;;0.10;0.10;;;;;;;;;;5023859;28;20421;-68
2023/03/31 04:45:36;;;;;;;0.10;0.10;;;;;;;;;;5014807;28;20576;-68
2023/03/31 04:48:04;;;;;;;0.10;0.10;;;;;;;;;;5024283;28;20226;-67
2023/03/31 04:50:31;;;;;;;0.10;0.10;;;;;;;;;;5014616;28;20294;-67
2023/03/31 04:52:57;;;;;;;0.10;0.10;;;;;;;;;;5023978;28;20245;-69
2023/03/31 04:55:24;;;;;;;0.10;0.10;;;;;;;;;;5014824;28;20230;-69
2023/03/31 04:57:51;;;;;;;0.10;0.10;;;;;;;;;;5024163;28;20439;-68
2023/03/31 05:00:18;;;;;;;0.40;0.40;;;;;;;;;;5014750;28;20223;-69
2023/03/31 05:02:44;;;;;;;0.10;0.10;;;;;;;;;;5022943;28;20251;-68
2023/03/31 05:05:12;;;;;;;0.13;0.13;;;;;;;;;;5014105;28;20513;-69
2023/03/31 05:07:39;;;;;;;0.10;0.10;;;;;;;;;;5023055;28;20466;-68
2023/03/31 05:10:06;;;;;;;0.10;0.10;;;;;;;;;;5024242;28;20283;-69
2023/03/31 05:12:33;;;;;;;0.10;0.10;;;;;;;;;;4996234;28;20213;-69
2023/03/31 05:15:00;;;;;;;0.10;0.10;;;;;;;;;;5024211;28;20280;-69
2023/03/31 05:17:27;;;;;;;0.10;0.10;;;;;;;;;;5013693;28;20237;-69
2023/03/31 05:19:53;;;;;;;0.10;0.10;;;;;;;;;;5024199;28;20413;-68
2023/03/31 05:22:21;;;;;;;0.10;0.10;;;;;;;;;;5012745;28;20490;-69
2023/03/31 05:24:47;;;;;;;0.10;0.10;;;;;;;;;;5023698;28;20240;-69
2023/03/31 05:27:13;;;;;;;0.10;0.10;;;;;;;;;;5012507;28;20258;-69
2023/03/31 05:29:40;;;;;;;0.10;0.10;;;;;;;;;;5024114;28;20449;-69
2023/03/31 05:32:06;;;;;;;0.10;0.10;;;;;;;;;;5012627;28;20243;-69
2023/03/31 05:34:35;;;;;;;0.27;0.27;;;;;;;;;;5023900;28;20212;-71
2023/03/31 05:37:01;;;;;;;0.10;0.10;;;;;;;;;;5013102;28;20239;-69
2023/03/31 05:39:31;;;;;;;0.10;0.10;;;;;;;;;;5024496;28;20243;-71
2023/03/31 05:41:58;;;;;;;0.10;0.10;;;;;;;;;;5012601;28;20242;-71
2023/03/31 05:44:25;;;;;;;0.10;0.10;;;;;;;;;;5023792;28;20330;-71
2023/03/31 05:46:51;;;;;;;0.10;0.10;;;;;;;;;;5012837;28;20237;-71
2023/03/31 05:49:18;;;;;;;0.10;0.10;;;;;;;;;;5027231;28;20279;-71
2023/03/31 05:51:44;;;;;;;0.10;0.10;;;;;;;;;;5016605;28;20307;-69
2023/03/31 05:54:11;;;;;;;0.10;0.10;;;;;;;;;;5027866;28;20208;-71
2023/03/31 05:56:38;;;;;;;0.10;0.10;;;;;;;;;;5017102;28;20303;-69
2023/03/31 05:59:05;;;;;;;0.10;0.10;;;;;;;;;;5027346;28;20527;-69
2023/03/31 06:01:31;;;;;;;0.10;0.10;;;;;;;;;;5016433;28;20285;-69
2023/03/31 06:03:57;;;;;;;0.10;0.10;;;;;;;;;;5026846;28;20454;-70
2023/03/31 06:06:25;;;;;;;0.20;0.20;;;;;;;;;;5016459;28;20240;-69
2023/03/31 06:08:51;;;;;;;0.10;0.10;;;;;;;;;;5027078;28;20501;-69
2023/03/31 06:11:19;;;;;;;0.10;0.10;;;;;;;;;;5016370;28;20308;-69
2023/03/31 06:13:47;;;;;;;0.10;0.10;;;;;;;;;;5026874;28;20229;-69
2023/03/31 06:16:14;;;;;;;0.10;0.10;;;;;;;;;;5016447;28;20264;-69
2023/03/31 06:18:41;;;;;;;0.20;0.20;;;;;;;;;;5026510;28;20252;-69
2023/03/31 06:21:07;;;;;;;0.10;0.10;;;;;;;;;;5016346;28;20241;-70
2023/03/31 06:23:34;;;;;;;0.10;0.10;;;;;;;;;;5026609;28;20272;-69
2023/03/31 06:26:02;;;;;;;0.10;0.10;;;;;;;;;;5016487;28;20245;-69
2023/03/31 06:28:28;;;;;;;0.20;0.20;;;;;;;;;;5026198;28;20320;-70
2023/03/31 06:31:01;;;;;;;0.10;0.10;;;;;;;;;;5016447;28;20247;-69
2023/03/31 06:33:27;;;;;;;0.63;0.63;;;;;;;;;;5026576;28;20216;-70
2023/03/31 06:35:55;;;;;;;0.10;0.10;;;;;;;;;;5016409;28;20263;-70
2023/03/31 06:38:21;;;;;;;0.10;0.10;;;;;;;;;;5026530;28;20269;-70
2023/03/31 06:40:47;;;;;;;0.20;0.20;;;;;;;;;;5016651;28;20493;-69
2023/03/31 06:43:14;;;;;;;0.20;0.20;;;;;;;;;;5026001;28;20213;-70
2023/03/31 06:45:40;;;;;;;0.17;0.17;;;;;;;;;;5016626;28;20239;-70
2023/03/31 06:48:08;;;;;;;0.10;0.10;;;;;;;;;;5025998;28;20255;-70
2023/03/31 06:50:37;;;;;;;0.10;0.10;;;;;;;;;;5016415;28;20490;-70
2023/03/31 06:53:03;;;;;;;0.30;0.30;;;;;;;;;;5025596;28;20580;-73
2023/03/31 06:55:30;;;;;;;0.10;0.10;;;;;;;;;;5016640;28;20241;-70
2023/03/31 06:57:56;;;;;;;0.73;0.73;;;;;;;;;;5025971;28;20193;-70
2023/03/31 07:00:24;;;;;;;0.10;0.10;;;;;;;;;;5015571;28;20223;-70
2023/03/31 07:02:51;;;;;;;0.10;0.10;;;;;;;;;;5025841;28;20535;-69
2023/03/31 07:05:25;;;;;;;0.10;0.10;;;;;;;;;;5016720;28;20239;-70
2023/03/31 07:07:51;;;;;;;0.10;0.10;;;;;;;;;;5025887;28;20266;-69
2023/03/31 07:10:18;;;;;;;0.10;0.10;;;;;;;;;;5015985;28;20244;-72
2023/03/31 07:12:44;;;;;;;0.10;0.10;;;;;;;;;;5024959;28;20202;-75
2023/03/31 07:15:11;;;;;;;0.10;0.10;;;;;;;;;;5016164;28;20511;-71
2023/03/31 07:17:40;;;;;;;0.10;0.10;;;;;;;;;;5025222;28;20221;-72
2023/03/31 07:20:11;;;;;;;0.10;0.10;;;;;;;;;;5020243;28;20386;-72
2023/03/31 07:22:40;;;;;;;0.10;0.10;;;;;;;;;;5024795;28;20217;-72
2023/03/31 07:25:06;;;;;;;0.10;0.10;;;;;;;;;;5023604;28;20236;-70
2023/03/31 07:27:33;;;;;;;0.10;0.10;;;;;;;;;;5024407;28;20275;-72
2023/03/31 07:29:59;;;;;;;0.10;0.10;;;;;;;;;;5026072;28;20276;-72
2023/03/31 07:32:25;;;;;;;0.20;0.20;;;;;;;;;;5014495;28;20245;-72
2023/03/31 07:34:52;;;;;;;0.10;0.10;;;;;;;;;;5026005;28;20233;-72
2023/03/31 07:37:18;;;;;;;0.10;0.10;;;;;;;;;;5014510;28;20254;-71
2023/03/31 07:39:46;;;;;;;0.10;0.10;;;;;;;;;;5025820;28;20206;-72
2023/03/31 07:42:12;;;;;;;0.10;0.10;;;;;;;;;;5014296;28;20244;-72
2023/03/31 07:44:39;;;;;;;0.20;0.20;;;;;;;;;;5025309;28;20209;-72
2023/03/31 07:47:05;;;;;;;0.10;0.10;;;;;;;;;;5014218;28;20233;-72
2023/03/31 07:49:32;;;;;;;0.10;0.10;;;;;;;;;;5025932;28;20278;-72
2023/03/31 07:51:58;;;;;;;3.57;3.37;;;;;;;;;;5014578;28;20313;-72
2023/03/31 07:54:24;;;;;;;0.10;0.10;;;;;;;;;;5025393;28;20272;-72
2023/03/31 07:56:52;;;;;;;0.10;0.10;;;;;;;;;;5014362;28;20237;-72
2023/03/31 07:59:20;;;;;;;0.10;0.10;;;;;;;;;;5025231;28;20292;-72
2023/03/31 08:01:46;;;;;;;0.10;0.10;;;;;;;;;;5014613;28;20585;-72
2023/03/31 08:04:13;;;;;;;0.60;0.53;;;;;;;;;;5025025;28;20232;-72
2023/03/31 08:06:39;;;;;;;0.10;0.10;;;;;;;;;;5014082;28;20243;-72
2023/03/31 08:09:06;;;;;;;0.10;0.10;;;;;;;;;;5024498;28;20212;-72
2023/03/31 08:11:33;;;;;;;0.10;0.10;;;;;;;;;;5013100;28;20249;-72
2023/03/31 08:14:01;;;;;;;0.10;0.10;;;;;;;;;;5024791;28;20458;-72
2023/03/31 08:16:27;;;;;;;0.10;0.10;;;;;;;;;;5013993;28;20241;-72
2023/03/31 08:18:53;;;;;;;0.10;0.10;;;;;;;;;;5024664;28;20210;-72
2023/03/31 08:21:20;;;;;;;0.30;0.30;;;;;;;;;;5014090;28;20445;-72
2023/03/31 08:23:46;;;;;;;0.10;0.10;;;;;;;;;;5024569;28;20205;-72
2023/03/31 08:26:13;;;;;;;0.20;0.20;;;;;;;;;;5013964;28;20252;-72
2023/03/31 08:28:40;;;;;;;3.20;0.47;;;;;;;;;;5024114;28;20225;-72
2023/03/31 08:31:09;;;;;;;0.30;0.30;;;;;;;;;;5014109;28;20595;-72
2023/03/31 08:33:36;;;;;;;0.10;0.10;;;;;;;;;;5024312;28;20509;-72
2023/03/31 08:36:03;;;;;;;0.10;0.10;;;;;;;;;;5014026;28;20252;-72
2023/03/31 08:38:30;;;;;;;0.20;0.20;;;;;;;;;;5023993;28;20201;-72
2023/03/31 08:40:59;;;;;;;0.10;0.10;;;;;;;;;;5014126;28;20345;-73
2023/03/31 08:43:27;;;;;;;0.10;0.10;;;;;;;;;;5024104;28;20403;-72
2023/03/31 08:45:55;;;;;;;0.10;0.10;;;;;;;;;;5013902;28;20489;-72
2023/03/31 08:48:25;;;;;;;0.10;0.10;;;;;;;;;;5023787;28;20257;-72
2023/03/31 08:50:54;;;;;;;0.17;0.17;;;;;;;;;;5013864;28;20304;-72
2023/03/31 08:53:22;;;;;;;0.10;0.10;;;;;;;;;;5023716;28;20434;-72
2023/03/31 08:55:50;;;;;;;0.10;0.10;;;;;;;;;;5013809;28;20304;-72
2023/03/31 08:58:21;;;;;;;0.10;0.10;;;;;;;;;;5023264;28;20272;-72
2023/03/31 09:00:51;;;;;;;0.10;0.10;;;;;;;;;;5013813;28;20308;-72
2023/03/31 09:03:19;;;;;;;0.10;0.10;;;;;;;;;;5023424;28;20273;-72
2023/03/31 09:05:52;;;;;;;0.10;0.10;;;;;;;;;;5014091;28;20268;-72
2023/03/31 09:08:25;;;;;;;0.10;0.10;;;;;;;;;;5023779;28;20236;-72
2023/03/31 09:10:55;;;;;;;0.10;0.10;;;;;;;;;;5013818;28;20264;-72
2023/03/31 09:13:34;;;;;;;0.10;0.10;;;;;;;;;;5023573;28;20280;-72
2023/03/31 09:16:03;;;;;;;0.10;0.10;;;;;;;;;;5013976;28;20293;-73
2023/03/31 09:18:31;;;;;;;1.30;0.63;;;;;;;;;;5023575;28;20549;-72
2023/03/31 09:21:03;;;;;;;0.10;0.10;;;;;;;;;;5013547;28;20262;-72
2023/03/31 09:23:32;;;;;;;0.10;0.10;;;;;;;;;;5023093;28;20276;-72
2023/03/31 09:25:59;;;;;;;0.10;0.10;;;;;;;;;;5013591;28;20241;-72
2023/03/31 09:28:28;;;;;;;0.10;0.10;;;;;;;;;;5023072;28;20229;-71
2023/03/31 09:30:55;;;;;;;0.10;0.10;;;;;;;;;;5013161;28;20308;-72
2023/03/31 09:33:26;;;;;;;0.10;0.10;;;;;;;;;;5023114;28;20206;-72
2023/03/31 09:35:52;;;;;;;0.20;0.20;;;;;;;;;;5013195;28;20241;-72
2023/03/31 09:38:20;;;;;;;0.10;0.10;;;;;;;;;;5023184;28;20237;-72
2023/03/31 09:40:46;;;;;;;0.23;0.23;;;;;;;;;;5013366;28;20450;-72
2023/03/31 09:43:18;;;;;;;0.10;0.10;;;;;;;;;;5022997;28;20391;-72
2023/03/31 09:45:45;;;;;;;0.10;0.10;;;;;;;;;;5013528;28;20247;-72
2023/03/31 09:48:14;;;;;;;0.10;0.10;;;;;;;;;;5022786;28;20257;-72
2023/03/31 09:50:43;;;;;;;0.10;0.10;;;;;;;;;;5013427;28;20241;-72
2023/03/31 09:53:15;;;;;;;0.10;0.10;;;;;;;;;;5022681;28;20276;-72
2023/03/31 09:55:44;;;;;;;0.10;0.10;;;;;;;;;;5013096;28;20264;-72
2023/03/31 09:58:12;;;;;;;0.10;0.10;;;;;;;;;;5023431;28;20255;-71
2023/03/31 10:00:40;;;;;;;0.10;0.10;;;;;;;;;;5013654;28;20307;-72
2023/03/31 10:03:07;;;;;;;0.10;0.10;;;;;;;;;;5023137;28;20230;-72
2023/03/31 10:05:35;;;;;;;0.10;0.10;;;;;;;;;;5013483;28;20265;-72
2023/03/31 10:08:14;;;;;;;0.10;0.10;;;;;;;;;;5022687;28;20229;-72
2023/03/31 10:10:45;;;;;;;0.10;0.10;;;;;;;;;;5013341;28;20252;-72
2023/03/31 10:13:15;;;;;;;0.10;0.10;;;;;;;;;;5022621;28;20580;-73
2023/03/31 10:15:41;;;;;;;0.10;0.10;;;;;;;;;;5013239;28;20329;-72
2023/03/31 10:18:12;;;;;;;0.10;0.10;;;;;;;;;;5022740;28;20216;-72
2023/03/31 10:20:43;;;;;;;0.10;0.10;;;;;;;;;;5013467;28;20315;-72
2023/03/31 10:23:16;;;;;;;0.10;0.10;;;;;;;;;;5022837;28;20228;-72
2023/03/31 10:25:45;;;;;;;0.10;0.10;;;;;;;;;;5013423;28;20241;-73
2023/03/31 10:28:12;;;;;;;0.10;0.10;;;;;;;;;;5022809;28;20237;-72
2023/03/31 10:30:40;;;;;;;0.10;0.10;;;;;;;;;;5012948;28;20287;-72
2023/03/31 10:33:09;;;;;;;0.10;0.10;;;;;;;;;;5022571;28;20205;-73
2023/03/31 10:35:36;;;;;;;0.10;0.10;;;;;;;;;;5016429;28;20309;-72
2023/03/31 10:38:04;;;;;;;0.73;0.57;;;;;;;;;;5026374;28;20494;-71
2023/03/31 10:40:31;;;;;;;0.10;0.10;;;;;;;;;;5016906;28;20299;-73
2023/03/31 10:43:02;;;;;;;0.10;0.10;;;;;;;;;;5026015;28;20224;-73
2023/03/31 10:45:29;;;;;;;0.10;0.10;;;;;;;;;;5016822;28;20340;-72
2023/03/31 10:47:56;;;;;;;0.10;0.10;;;;;;;;;;5025836;28;20244;-72
2023/03/31 10:50:26;;;;;;;0.10;0.10;;;;;;;;;;5016724;28;20422;-73
2023/03/31 10:52:52;;;;;;;0.10;0.10;;;;;;;;;;5025387;28;20225;-73
2023/03/31 10:55:23;;;;;;;0.10;0.10;;;;;;;;;;5016123;28;20246;-72
2023/03/31 10:57:53;;;;;;;0.10;0.10;;;;;;;;;;5025505;28;20524;-72
2023/03/31 11:00:27;;;;;;;0.10;0.10;;;;;;;;;;5016080;28;20414;-73
2023/03/31 11:03:11;;;;;;;0.10;0.10;;;;;;;;;;5025497;28;20228;-73
2023/03/31 11:05:41;;;;;;;0.10;0.10;;;;;;;;;;5005794;28;20245;-73
2023/03/31 11:08:20;;;;;;;0.10;0.10;;;;;;;;;;5025587;28;20213;-73
2023/03/31 11:10:53;;;;;;;0.10;0.10;;;;;;;;;;5016354;28;20264;-73
2023/03/31 11:13:22;;;;;;;0.10;0.10;;;;;;;;;;5025654;28;20213;-73
2023/03/31 11:15:54;;;;;;;0.10;0.10;;;;;;;;;;5016010;28;20316;-72
2023/03/31 11:18:30;;;;;;;0.10;0.10;;;;;;;;;;5025822;28;20240;-69
2023/03/31 11:21:01;;;;;;;0.10;0.10;;;;;;;;;;5016179;28;20308;-70
2023/03/31 11:23:33;;;;;;;0.10;0.10;;;;;;;;;;5025780;28;20205;-70
2023/03/31 11:26:02;;;;;;;0.10;0.10;;;;;;;;;;5015789;28;20564;-70
2023/03/31 11:28:45;;;;;;;0.10;0.10;;;;;;;;;;5025063;28;20294;-70
2023/03/31 11:31:20;;;;;;;0.10;0.10;;;;;;;;;;5015253;28;20313;-70
2023/03/31 11:33:53;;;;;;;0.10;0.10;;;;;;;;;;5025857;28;20242;-70
2023/03/31 11:36:27;;;;;;;0.10;0.10;;;;;;;;;;5015146;28;20490;-70
2023/03/31 11:39:00;;;;;;;0.10;0.10;;;;;;;;;;5025741;28;20204;-70
2023/03/31 11:41:29;;;;;;;0.10;0.10;;;;;;;;;;5015126;28;20264;-70
2023/03/31 11:43:59;;;;;;;0.10;0.10;;;;;;;;;;5024926;28;20249;-71
2023/03/31 11:46:29;;;;;;;0.10;0.10;;;;;;;;;;5014621;28;20243;-71
2023/03/31 11:48:58;;;;;;;0.10;0.10;;;;;;;;;;5025126;28;20293;-71
2023/03/31 11:51:26;;;;;;;0.10;0.10;;;;;;;;;;5014728;28;20312;-69
2023/03/31 11:53:54;;;;;;;0.10;0.10;;;;;;;;;;5024753;28;20442;-68
2023/03/31 11:56:21;;;;;;;0.10;0.10;;;;;;;;;;5014368;28;20312;-68
2023/03/31 11:58:51;;;;;;;0.10;0.10;;;;;;;;;;5025049;28;20577;-69
2023/03/31 12:01:20;;;;;;;0.10;0.10;;;;;;;;;;5014344;28;20260;-68
2023/03/31 12:03:52;;;;;;;0.70;0.70;;;;;;;;;;5024669;28;20237;-68
2023/03/31 12:06:21;;;;;;;0.10;0.10;;;;;;;;;;5014537;28;20241;-69
2023/03/31 12:08:51;;;;;;;0.10;0.10;;;;;;;;;;5024513;28;20231;-70
2023/03/31 12:11:22;;;;;;;0.40;0.40;;;;;;;;;;5014355;28;20240;-70
2023/03/31 12:13:51;;;;;;;0.10;0.10;;;;;;;;;;5024721;28;20205;-70
2023/03/31 12:16:20;;;;;;;0.10;0.10;;;;;;;;;;5014184;28;20312;-69
2023/03/31 12:18:57;;;;;;;0.10;0.10;;;;;;;;;;5024703;28;20201;-70
2023/03/31 12:21:26;;;;;;;0.10;0.10;;;;;;;;;;5014263;28;20256;-71
2023/03/31 12:23:53;;;;;;;0.10;0.10;;;;;;;;;;5024508;28;20209;-70
2023/03/31 12:26:29;;;;;;;0.10;0.10;;;;;;;;;;5014115;28;20241;-70
2023/03/31 12:28:58;;;;;;;0.10;0.10;;;;;;;;;;5024539;28;20271;-71
2023/03/31 12:31:26;;;;;;;0.10;0.10;;;;;;;;;;5013858;28;20279;-70
2023/03/31 12:33:55;;;;;;;0.10;0.10;;;;;;;;;;5024495;28;20382;-71
2023/03/31 12:36:27;;;;;;;0.20;0.20;;;;;;;;;;5014083;28;20271;-70
2023/03/31 12:39:00;;;;;;;0.67;0.30;;;;;;;;;;5024554;28;20276;-66
2023/03/31 12:41:31;;;;;;;0.10;0.10;;;;;;;;;;5013766;28;20263;-66
2023/03/31 12:44:07;;;;;;;0.10;0.10;;;;;;;;;;5023978;28;20275;-66
2023/03/31 12:46:42;;;;;;;0.10;0.10;;;;;;;;;;5013580;28;20247;-66
2023/03/31 12:49:34;;;;;;;0.10;0.10;;;;;;;;;;5024331;28;20440;-66
2023/03/31 12:52:04;;;;;;;0.10;0.10;;;;;;;;;;5013326;28;20272;-66
2023/03/31 12:54:50;;;;;;;0.10;0.10;;;;;;;;;;5024559;28;20276;-66
2023/03/31 12:57:22;;;;;;;0.10;0.10;;;;;;;;;;4984034;28;20573;-66
2023/03/31 13:00:06;;;;;;;0.10;0.10;;;;;;;;;;5024751;28;20215;-71
2023/03/31 13:02:32;;;;;;;0.10;0.10;;;;;;;;;;4997842;28;20214;-66
2023/03/31 13:04:59;;;;;;;0.10;0.10;;;;;;;;;;5025100;28;20255;-66
2023/03/31 13:07:37;;;;;;;0.10;0.10;;;;;;;;;;5013857;28;20249;-66
2023/03/31 13:10:20;;;;;;;0.10;0.10;;;;;;;;;;5024606;28;20236;-66
2023/03/31 13:12:56;;;;;;;0.10;0.10;;;;;;;;;;5024655;28;20213;-66
2023/03/31 13:15:23;;;;;;;0.47;0.47;;;;;;;;;;5014823;28;20450;-66
2023/03/31 13:17:55;;;;;;;0.10;0.10;;;;;;;;;;5023526;28;20195;-67
2023/03/31 13:20:29;;;;;;;0.10;0.10;;;;;;;;;;5014411;28;20221;-67
2023/03/31 13:23:01;;;;;;;0.10;0.10;;;;;;;;;;5023789;28;20193;-67
2023/03/31 13:25:48;;;;;;;0.30;0.30;;;;;;;;;;5014628;28;20259;-66
2023/03/31 13:28:24;;;;;;;0.57;0.57;;;;;;;;;;5023876;28;20209;-66
2023/03/31 13:30:52;;;;;;;0.20;0.20;;;;;;;;;;5014073;28;20260;-66
2023/03/31 13:33:30;;;;;;;0.10;0.10;;;;;;;;;;5024020;28;20238;-66
2023/03/31 13:36:06;;;;;;;0.10;0.10;;;;;;;;;;5013347;28;20424;-66
2023/03/31 13:38:41;;;;;;;0.20;0.20;;;;;;;;;;5023334;28;20379;-66
2023/03/31 13:41:16;;;;;;;0.10;0.10;;;;;;;;;;5013236;28;20309;-66
2023/03/31 13:43:54;;;;;;;0.10;0.10;;;;;;;;;;5023365;28;20275;-66
2023/03/31 13:46:42;;;;;;;0.10;0.10;;;;;;;;;;5012916;28;20309;-66
2023/03/31 13:49:16;;;;;;;0.10;0.10;;;;;;;;;;4993897;28;20489;-66
2023/03/31 13:51:47;;;;;;;0.10;0.10;;;;;;;;;;5012764;28;20304;-66
2023/03/31 13:54:32;;;;;;;0.10;0.10;;;;;;;;;;5024214;28;20253;-66
2023/03/31 13:57:12;;;;;;;0.10;0.10;;;;;;;;;;5013246;28;20619;-66
2023/03/31 13:59:48;;;;;;;0.10;0.10;;;;;;;;;;5024219;28;20222;-66
2023/03/31 14:02:27;;;;;;;0.00;0.00;;;;;;;;;;5013575;28;20474;-69
2023/03/31 14:05:11;;;;;;;0.10;0.10;;;;;;;;;;5024661;28;20362;-69
2023/03/31 14:07:40;;;;;;;0.10;0.10;;;;;;;;;;4996871;28;20285;-69
2023/03/31 14:10:21;;;;;;;0.10;0.10;;;;;;;;;;5028058;28;20476;-69
2023/03/31 14:12:47;;;;;;;0.10;0.10;;;;;;;;;;5027319;28;20185;-69
2023/03/31 14:15:20;;;;;;;0.10;0.10;;;;;;;;;;5017250;28;20238;-68
2023/03/31 14:17:46;;;;;;;0.03;0.03;;;;;;;;;;5026340;28;20196;-69
2023/03/31 14:20:28;;;;;;;0.10;0.10;;;;;;;;;;5017154;28;20229;-68
2023/03/31 14:22:58;;;;;;;0.10;0.10;;;;;;;;;;5026052;28;20207;-69
2023/03/31 14:25:31;;;;;;;0.10;0.10;;;;;;;;;;5017093;28;20202;-69
2023/03/31 14:28:04;;;;;;;0.10;0.10;;;;;;;;;;5026259;28;20273;-69
2023/03/31 14:30:37;;;;;;;0.20;0.20;;;;;;;;;;5017245;28;20308;-68
2023/03/31 14:33:09;;;;;;;0.10;0.10;;;;;;;;;;5026214;28;20256;-69
2023/03/31 14:35:41;;;;;;;0.60;0.60;;;;;;;;;;5016590;28;20236;-69
2023/03/31 14:38:11;;;;;;;0.83;0.83;;;;;;;;;;5025973;28;20208;-69
2023/03/31 14:40:44;;;;;;;0.10;0.10;;;;;;;;;;5016335;28;20246;-70
2023/03/31 14:43:17;;;;;;;0.10;0.10;;;;;;;;;;5026095;28;20235;-70
2023/03/31 14:45:44;;;;;;;0.10;0.10;;;;;;;;;;5016307;28;20369;-70
2023/03/31 14:48:13;;;;;;;0.10;0.10;;;;;;;;;;5025803;28;20225;-70
2023/03/31 14:50:42;;;;;;;0.10;0.10;;;;;;;;;;5016300;28;20250;-70
2023/03/31 14:53:13;;;;;;;0.10;0.10;;;;;;;;;;5025635;28;20308;-70
2023/03/31 14:55:40;;;;;;;0.10;0.10;;;;;;;;;;5016224;28;20254;-70
2023/03/31 14:58:08;;;;;;;0.10;0.10;;;;;;;;;;5025723;28;20209;-70